Terminal Aerodrome Forecast
Issued by NWS

Home | Current Version | Previous Version | Graphics & Text | Print | Product List | Glossary On
Versions: 1 2 3 4 5 6 7 8 9 10 11 12 13 14 15 16 17 18
387
FTUS43 KICT 231720
TAFRSL
TAF
KRSL 231720Z 2318/2418 36014KT P6SM VCSH BKN090
     FM232300 35010KT P6SM SCT120
     FM240400 34004KT P6SM SKC
     FM241400 04005KT P6SM FEW200=

USA.gov is the U.S. government's official web portal to all federal, state and local government web resources and services.